createdAt,value
2022-08-24T00:00:50.500Z,23.77
2022-08-24T00:03:19.853Z,23.72
2022-08-24T00:05:49.050Z,23.76
2022-08-24T00:08:19.167Z,23.66
2022-08-24T00:10:48.963Z,23.55
2022-08-24T00:13:18.820Z,23.46
2022-08-24T00:15:49.315Z,23.54
2022-08-24T00:18:18.631Z,23.62
2022-08-24T00:20:48.536Z,23.61
2022-08-24T00:23:18.141Z,23.67
2022-08-24T00:25:47.761Z,23.67
2022-08-24T00:28:16.952Z,23.64
2022-08-24T00:30:45.953Z,23.54
2022-08-24T00:33:16.716Z,23.70
2022-08-24T00:35:45.876Z,23.60
2022-08-24T00:38:14.929Z,23.60
2022-08-24T00:40:49.787Z,23.69
2022-08-24T00:43:21.821Z,23.79
2022-08-24T00:45:59.441Z,23.58
2022-08-24T00:48:34.894Z,23.55
2022-08-24T00:51:08.744Z,23.43
2022-08-24T00:53:46.706Z,23.44
2022-08-24T00:56:21.780Z,23.55
2022-08-24T00:58:57.464Z,23.79
2022-08-24T01:01:29.706Z,23.70
2022-08-24T01:06:30.211Z,23.67
2022-08-24T01:08:59.534Z,23.74
2022-08-24T01:11:33.737Z,23.54
2022-08-24T01:14:05.397Z,23.72
2022-08-24T01:16:52.764Z,23.75
2022-08-24T01:19:34.739Z,23.71
2022-08-24T01:22:22.984Z,23.67
2022-08-24T01:24:53.766Z,23.51
2022-08-24T01:27:23.904Z,23.52
2022-08-24T01:30:00.001Z,23.61
2022-08-24T01:32:29.054Z,23.65
2022-08-24T01:34:59.443Z,23.58
2022-08-24T01:37:28.884Z,23.76
2022-08-24T01:40:01.592Z,23.73
2022-08-24T01:42:34.858Z,23.70
2022-08-24T01:45:05.759Z,23.67
2022-08-24T01:47:35.257Z,23.68
2022-08-24T01:50:05.712Z,23.69
2022-08-24T01:53:03.506Z,23.61
2022-08-24T01:57:56.062Z,23.60
2022-08-24T02:00:25.470Z,23.50
2022-08-24T02:02:56.660Z,23.44
2022-08-24T02:05:26.647Z,23.65
2022-08-24T02:07:56.837Z,23.57
2022-08-24T02:10:29.309Z,23.46
2022-08-24T02:13:00.477Z,23.62
2022-08-24T02:15:32.206Z,23.64
2022-08-24T02:18:02.055Z,23.68
2022-08-24T02:20:31.877Z,23.70
2022-08-24T02:23:01.351Z,23.66
2022-08-24T02:25:32.233Z,23.68
2022-08-24T02:28:02.304Z,23.73
2022-08-24T02:30:32.523Z,23.79
2022-08-24T02:33:02.546Z,23.67
2022-08-24T02:35:32.278Z,23.73
2022-08-24T02:38:01.780Z,23.78
2022-08-24T02:40:34.297Z,23.71
2022-08-24T02:43:03.748Z,23.67
2022-08-24T02:45:33.771Z,23.54
2022-08-24T02:48:02.848Z,23.47
2022-08-24T02:50:32.157Z,23.44
2022-08-24T02:53:01.889Z,23.41
2022-08-24T02:55:32.998Z,23.36
2022-08-24T02:58:02.275Z,23.31
2022-08-24T03:00:31.601Z,23.23
2022-08-24T03:03:01.758Z,23.17
2022-08-24T03:05:31.261Z,23.07
2022-08-24T03:08:00.321Z,23.08
2022-08-24T03:15:44.110Z,23.21
2022-08-24T03:18:14.058Z,23.06
2022-08-24T03:20:44.626Z,23.03
2022-08-24T03:23:14.262Z,22.94
2022-08-24T03:25:44.596Z,22.87
2022-08-24T03:28:14.277Z,22.79
2022-08-24T03:30:48.491Z,22.91
2022-08-24T03:33:19.766Z,23.08
2022-08-24T03:35:49.160Z,23.13
2022-08-24T03:38:19.715Z,23.21
2022-08-24T03:40:49.145Z,23.07
2022-08-24T03:43:33.480Z,23.13
2022-08-24T03:46:07.548Z,23.03
2022-08-24T03:48:41.077Z,23.01
2022-08-24T03:51:14.721Z,22.86
2022-08-24T03:53:44.636Z,22.70
2022-08-24T03:56:13.971Z,22.76
2022-08-24T03:58:43.514Z,22.74
2022-08-24T04:01:15.661Z,22.77
2022-08-24T04:03:46.949Z,22.63
2022-08-24T04:06:19.342Z,22.62
2022-08-24T04:08:49.461Z,22.74
2022-08-24T04:11:23.094Z,22.88
2022-08-24T04:13:54.322Z,23.05
2022-08-24T04:16:27.084Z,23.17
2022-08-24T04:19:06.162Z,23.28
2022-08-24T04:21:37.234Z,23.26
2022-08-24T04:24:10.519Z,23.44
2022-08-24T04:26:45.772Z,23.47
2022-08-24T04:29:20.609Z,23.57
2022-08-24T04:31:56.452Z,23.61
2022-08-24T04:34:25.981Z,23.59
2022-08-24T04:36:55.425Z,23.64
2022-08-24T04:39:24.411Z,23.73
2022-08-24T04:41:58.954Z,23.79
2022-08-24T04:44:36.150Z,23.84
2022-08-24T04:47:08.859Z,23.87
2022-08-24T04:49:40.053Z,24.04
2022-08-24T04:52:09.989Z,24.11
2022-08-24T04:54:39.118Z,24.12
2022-08-24T04:57:17.995Z,24.19
2022-08-24T04:59:48.669Z,24.20
2022-08-24T05:02:20.978Z,24.39
2022-08-24T05:04:52.275Z,24.34
2022-08-24T05:07:21.706Z,24.48
2022-08-24T05:09:52.434Z,24.54
2022-08-24T05:12:22.956Z,24.62
2022-08-24T05:15:00.670Z,24.68
2022-08-24T05:17:33.545Z,24.93
2022-08-24T05:20:06.770Z,24.94
2022-08-24T05:22:36.325Z,24.99
2022-08-24T05:25:07.432Z,25.01
2022-08-24T05:27:37.738Z,24.89
2022-08-24T05:30:08.301Z,25.12
2022-08-24T05:32:39.508Z,25.33
2022-08-24T05:35:09.837Z,25.31
2022-08-24T05:37:40.336Z,25.39
2022-08-24T05:40:21.022Z,25.46
2022-08-24T05:42:54.816Z,25.60
2022-08-24T05:45:24.971Z,25.76
2022-08-24T05:47:55.695Z,26.13
2022-08-24T05:50:55.151Z,26.29
2022-08-24T05:53:25.837Z,26.33
2022-08-24T05:55:55.332Z,26.37
2022-08-24T05:58:30.777Z,26.59
2022-08-24T06:01:08.645Z,26.77
2022-08-24T06:03:40.847Z,26.92
2022-08-24T06:06:13.650Z,26.95
2022-08-24T06:08:45.838Z,26.80
2022-08-24T06:11:30.183Z,26.79
2022-08-24T06:14:01.893Z,26.85
2022-08-24T06:16:36.649Z,26.80
2022-08-24T06:19:09.595Z,26.95
2022-08-24T06:21:39.091Z,26.83
2022-08-24T06:24:09.183Z,26.57
2022-08-24T06:26:56.458Z,26.50
2022-08-24T06:29:25.644Z,26.45
2022-08-24T06:31:59.985Z,26.46
2022-08-24T06:34:30.736Z,26.63
2022-08-24T06:36:59.924Z,26.46
2022-08-24T06:39:29.287Z,26.46
2022-08-24T06:41:59.496Z,26.49
2022-08-24T06:44:33.516Z,26.78
2022-08-24T06:47:15.831Z,27.02
2022-08-24T06:49:46.866Z,26.79
2022-08-24T06:52:16.718Z,26.70
2022-08-24T06:54:46.183Z,26.72
2022-08-24T06:57:15.539Z,26.77
2022-08-24T06:59:45.897Z,26.70
2022-08-24T07:02:16.531Z,26.56
2022-08-24T07:04:48.318Z,26.47
2022-08-24T07:07:36.596Z,26.69
2022-08-24T07:10:08.708Z,26.68
2022-08-24T07:12:40.220Z,26.49
2022-08-24T07:15:12.537Z,26.81
2022-08-24T07:17:52.045Z,26.48
2022-08-24T07:20:25.052Z,26.35
2022-08-24T07:23:13.110Z,26.58
2022-08-24T07:25:48.913Z,26.89
2022-08-24T07:28:31.631Z,26.68
2022-08-24T07:31:03.722Z,27.19
2022-08-24T07:33:39.048Z,27.52
2022-08-24T07:36:10.167Z,28.04
2022-08-24T07:38:42.258Z,28.09
2022-08-24T07:41:38.193Z,28.26
2022-08-24T07:44:01.351Z,28.22
2022-08-24T07:46:30.882Z,28.05
2022-08-24T07:49:11.405Z,27.83
2022-08-24T07:51:53.323Z,28.25
2022-08-24T07:54:23.028Z,28.36
2022-08-24T07:56:53.508Z,28.65
2022-08-24T07:59:22.946Z,28.55
2022-08-24T08:01:53.278Z,28.29
2022-08-24T08:04:25.287Z,28.39
2022-08-24T08:09:33.136Z,28.30
2022-08-24T08:12:03.061Z,28.47
2022-08-24T08:14:33.209Z,28.69
2022-08-24T08:17:02.982Z,28.94
2022-08-24T08:19:33.166Z,29.25
2022-08-24T08:22:21.927Z,29.54
2022-08-24T08:25:19.286Z,29.33
2022-08-24T08:27:48.793Z,29.78
2022-08-24T08:30:18.683Z,30.14
2022-08-24T08:32:47.770Z,30.11
2022-08-24T08:35:17.150Z,29.71
2022-08-24T08:37:48.295Z,30.14
2022-08-24T08:40:31.060Z,30.00
2022-08-24T08:43:07.576Z,29.80
2022-08-24T08:45:58.766Z,30.11
2022-08-24T08:49:24.751Z,30.05
2022-08-24T08:52:24.634Z,29.92
2022-08-24T08:55:11.938Z,29.91
2022-08-24T08:57:56.641Z,29.82
2022-08-24T09:00:34.882Z,29.47
2022-08-24T09:03:25.587Z,30.05
2022-08-24T09:06:38.665Z,30.23
2022-08-24T09:09:36.074Z,30.96
2022-08-24T09:12:23.292Z,31.06
2022-08-24T09:15:15.958Z,30.79
2022-08-24T09:18:04.881Z,30.75
2022-08-24T09:21:04.699Z,30.69
2022-08-24T09:23:45.682Z,30.41
2022-08-24T09:26:27.267Z,30.37
2022-08-24T09:29:11.385Z,30.84
2022-08-24T09:31:57.402Z,31.31
2022-08-24T09:34:37.365Z,30.74
2022-08-24T09:37:30.202Z,29.86
2022-08-24T09:40:12.823Z,29.92
2022-08-24T09:43:17.506Z,31.30
2022-08-24T09:46:25.369Z,31.80
2022-08-24T09:49:23.996Z,32.19
2022-08-24T09:52:36.786Z,32.49
2022-08-24T09:55:33.472Z,33.35
2022-08-24T09:58:14.355Z,33.27
2022-08-24T10:00:48.956Z,33.81
2022-08-24T10:03:48.570Z,33.44
2022-08-24T10:06:31.471Z,32.40
2022-08-24T10:09:15.540Z,32.72
2022-08-24T10:12:00.292Z,33.02
2022-08-24T10:14:45.881Z,33.53
2022-08-24T10:17:23.314Z,33.39
2022-08-24T10:20:06.902Z,34.00
2022-08-24T10:23:02.606Z,33.95
2022-08-24T10:25:39.494Z,35.16
2022-08-24T10:28:45.874Z,36.06
2022-08-24T10:31:20.424Z,36.32
2022-08-24T10:34:08.241Z,36.71
2022-08-24T10:37:02.460Z,36.30
2022-08-24T10:39:43.646Z,35.06
2022-08-24T10:42:58.770Z,34.22
2022-08-24T10:46:02.501Z,36.02
2022-08-24T10:48:54.614Z,35.05
2022-08-24T10:51:37.915Z,34.45
2022-08-24T10:54:12.329Z,33.19
2022-08-24T10:56:44.574Z,33.68
2022-08-24T10:59:23.950Z,36.14
2022-08-24T11:02:08.420Z,38.39
2022-08-24T11:04:43.535Z,39.50
2022-08-24T11:07:20.535Z,41.68
2022-08-24T11:09:56.398Z,41.26
2022-08-24T11:12:33.676Z,40.97
2022-08-24T11:15:06.049Z,38.67
2022-08-24T11:17:37.836Z,36.78
2022-08-24T11:20:27.800Z,35.38
2022-08-24T11:23:05.250Z,34.99
2022-08-24T11:25:38.703Z,33.75
2022-08-24T11:28:20.698Z,33.77
2022-08-24T11:30:50.323Z,32.19
2022-08-24T11:33:32.195Z,31.32
2022-08-24T11:36:02.833Z,31.05
2022-08-24T11:38:35.084Z,30.56
2022-08-24T11:41:14.455Z,30.30
2022-08-24T11:43:59.547Z,30.53
2022-08-24T11:46:38.388Z,31.04
2022-08-24T11:49:15.526Z,31.72
2022-08-24T11:51:50.298Z,32.18
2022-08-24T11:54:30.066Z,34.40
2022-08-24T11:57:12.776Z,34.36
2022-08-24T11:59:51.861Z,37.52
2022-08-24T12:02:29.963Z,38.25
2022-08-24T12:05:09.899Z,37.91
2022-08-24T12:07:52.380Z,37.08
2022-08-24T12:10:32.819Z,40.95
2022-08-24T12:13:10.386Z,42.29
2022-08-24T12:15:51.808Z,42.65
2022-08-24T12:18:31.080Z,40.04
2022-08-24T12:21:01.398Z,41.89
2022-08-24T12:23:38.704Z,43.52
2022-08-24T12:26:13.388Z,44.36
2022-08-24T12:28:53.657Z,43.97
2022-08-24T12:31:37.751Z,41.52
2022-08-24T12:34:14.612Z,43.60
2022-08-24T12:36:54.833Z,43.71
2022-08-24T12:39:27.559Z,46.24
2022-08-24T12:42:17.214Z,44.85
2022-08-24T12:44:56.766Z,46.64
2022-08-24T12:47:31.463Z,45.90
2022-08-24T12:50:07.198Z,46.26
2022-08-24T12:53:08.981Z,47.48
2022-08-24T12:56:08.306Z,47.65
2022-08-24T12:58:58.440Z,45.35
2022-08-24T13:01:33.723Z,45.35
2022-08-24T13:04:20.111Z,44.98
2022-08-24T13:06:57.744Z,44.90
2022-08-24T13:09:33.227Z,45.71
2022-08-24T13:12:41.771Z,46.22
2022-08-24T13:15:42.756Z,46.11
2022-08-24T13:18:42.867Z,46.63
2022-08-24T13:21:33.931Z,45.40
2022-08-24T13:24:48.237Z,42.56
2022-08-24T13:28:03.048Z,41.61
2022-08-24T13:31:04.478Z,43.75
2022-08-24T13:33:38.867Z,42.92
2022-08-24T13:36:47.282Z,43.07
2022-08-24T13:39:49.088Z,43.23
2022-08-24T13:42:39.995Z,42.70
2022-08-24T13:45:26.203Z,40.19
2022-08-24T13:48:05.193Z,42.09
2022-08-24T13:50:43.716Z,41.14
2022-08-24T13:53:44.514Z,38.49
2022-08-24T13:56:32.686Z,39.25
2022-08-24T13:59:12.436Z,39.32
2022-08-24T14:02:01.096Z,36.22
2022-08-24T14:04:55.127Z,37.23
2022-08-24T14:07:29.915Z,35.88
2022-08-24T14:10:11.939Z,36.08
2022-08-24T14:12:52.081Z,39.01
2022-08-24T14:15:35.063Z,39.50
2022-08-24T14:18:11.644Z,39.84
2022-08-24T14:21:05.963Z,40.09
2022-08-24T14:23:57.640Z,38.95
2022-08-24T14:27:07.233Z,38.71
2022-08-24T14:29:44.321Z,39.76
2022-08-24T14:32:40.797Z,41.90
2022-08-24T14:35:36.337Z,42.21
2022-08-24T14:38:33.322Z,41.64
2022-08-24T14:41:21.075Z,38.88
2022-08-24T14:44:15.105Z,39.17
2022-08-24T14:46:53.022Z,39.47
2022-08-24T14:49:30.482Z,38.35
2022-08-24T14:52:24.888Z,38.02
2022-08-24T14:55:07.103Z,36.05
2022-08-24T14:57:44.093Z,33.90
2022-08-24T15:00:16.105Z,32.85
2022-08-24T15:03:06.596Z,30.92
2022-08-24T15:05:44.003Z,30.17
2022-08-24T15:08:28.914Z,30.54
2022-08-24T15:11:02.664Z,30.52
2022-08-24T15:13:38.610Z,30.35
2022-08-24T15:16:13.148Z,30.09
2022-08-24T15:18:49.352Z,29.51
2022-08-24T15:21:41.451Z,29.76
2022-08-24T15:24:20.732Z,29.28
2022-08-24T15:27:15.611Z,29.04
2022-08-24T15:29:53.223Z,28.97
2022-08-24T15:32:28.243Z,28.15
2022-08-24T15:34:59.513Z,28.08
2022-08-24T15:37:35.113Z,28.63
2022-08-24T15:40:10.946Z,28.53
2022-08-24T15:42:42.991Z,28.69
2022-08-24T15:45:14.798Z,28.44
2022-08-24T15:47:51.889Z,27.96
2022-08-24T15:50:26.405Z,27.85
2022-08-24T15:53:01.109Z,27.81
2022-08-24T15:55:42.238Z,28.04
2022-08-24T15:58:30.519Z,27.86
2022-08-24T16:01:36.263Z,27.86
2022-08-24T16:04:11.775Z,27.79
2022-08-24T16:06:45.342Z,27.72
2022-08-24T16:09:35.643Z,28.01
2022-08-24T16:12:12.829Z,28.23
2022-08-24T16:14:47.566Z,28.08
2022-08-24T16:17:28.180Z,28.20
2022-08-24T16:20:00.678Z,27.87
2022-08-24T16:22:36.178Z,27.82
2022-08-24T16:25:25.521Z,28.30
2022-08-24T16:28:07.823Z,28.17
2022-08-24T16:30:48.349Z,28.30
2022-08-24T16:33:44.193Z,28.52
2022-08-24T16:36:17.821Z,28.27
2022-08-24T16:38:50.842Z,28.34
2022-08-24T16:41:23.797Z,28.60
2022-08-24T16:43:53.645Z,28.51
2022-08-24T16:46:24.944Z,28.24
2022-08-24T16:48:55.182Z,28.19
2022-08-24T16:51:25.486Z,28.06
2022-08-24T16:53:55.127Z,27.92
2022-08-24T16:56:26.224Z,28.03
2022-08-24T16:58:56.076Z,28.01
2022-08-24T17:01:25.995Z,27.37
2022-08-24T17:03:55.612Z,27.43
2022-08-24T17:06:25.227Z,27.53
2022-08-24T17:08:55.099Z,27.50
2022-08-24T17:11:27.199Z,27.34
2022-08-24T17:13:56.922Z,27.40
2022-08-24T17:16:26.403Z,27.22
2022-08-24T17:18:55.915Z,27.25
2022-08-24T17:21:25.239Z,27.12
2022-08-24T17:23:54.429Z,26.79
2022-08-24T17:26:26.960Z,26.69
2022-08-24T17:28:56.972Z,26.63
2022-08-24T17:31:26.376Z,26.68
2022-08-24T17:33:55.860Z,26.26
2022-08-24T17:36:26.157Z,26.14
2022-08-24T17:39:03.165Z,26.01
2022-08-24T17:41:34.622Z,26.15
2022-08-24T17:44:04.678Z,26.16
2022-08-24T17:46:37.253Z,25.87
2022-08-24T17:49:07.738Z,25.89
2022-08-24T17:51:37.330Z,25.95
2022-08-24T17:54:08.156Z,25.95
2022-08-24T17:56:41.009Z,25.71
2022-08-24T17:59:26.454Z,25.65
2022-08-24T18:02:00.500Z,25.65
2022-08-24T18:04:34.051Z,25.63
2022-08-24T18:07:05.992Z,25.36
2022-08-24T18:09:42.109Z,25.44
2022-08-24T18:12:13.065Z,25.58
2022-08-24T18:14:43.372Z,25.63
2022-08-24T18:17:21.110Z,25.70
2022-08-24T18:19:54.175Z,25.46
2022-08-24T18:22:23.468Z,25.27
2022-08-24T18:24:52.809Z,25.34
2022-08-24T18:27:28.898Z,25.42
2022-08-24T18:30:01.325Z,25.63
2022-08-24T18:32:37.730Z,25.49
2022-08-24T18:35:09.871Z,25.29
2022-08-24T18:37:39.165Z,25.33
2022-08-24T18:40:21.390Z,25.39
2022-08-24T18:42:52.514Z,25.23
2022-08-24T18:45:22.987Z,25.38
2022-08-24T18:47:53.302Z,25.36
2022-08-24T18:50:23.567Z,25.37
2022-08-24T18:52:52.859Z,25.35
2022-08-24T18:55:23.110Z,25.18
2022-08-24T18:57:54.336Z,25.36
2022-08-24T19:00:24.080Z,25.28
2022-08-24T19:02:57.959Z,25.17
2022-08-24T19:05:27.983Z,25.01
2022-08-24T19:07:57.424Z,25.09
2022-08-24T19:10:28.821Z,25.11
2022-08-24T19:13:03.283Z,25.14
2022-08-24T19:15:40.342Z,25.12
2022-08-24T19:18:12.677Z,25.13
2022-08-24T19:20:47.953Z,24.94
2022-08-24T19:23:22.430Z,25.14
2022-08-24T19:25:55.879Z,24.98
2022-08-24T19:28:27.584Z,24.98
2022-08-24T19:31:00.511Z,24.96
2022-08-24T19:33:37.148Z,25.05
2022-08-24T19:36:07.240Z,24.98
2022-08-24T19:38:37.010Z,24.92
2022-08-24T19:41:12.676Z,24.90
2022-08-24T19:43:58.512Z,24.93
2022-08-24T19:46:28.159Z,24.99
2022-08-24T19:48:57.583Z,24.91
2022-08-24T19:51:27.081Z,24.80
2022-08-24T19:53:58.697Z,24.78
2022-08-24T19:56:32.549Z,24.81
2022-08-24T19:59:07.782Z,24.84
2022-08-24T20:01:38.383Z,24.70
2022-08-24T20:04:08.492Z,24.72
2022-08-24T20:06:38.738Z,24.73
2022-08-24T20:09:08.420Z,24.76
2022-08-24T20:11:39.435Z,24.68
2022-08-24T20:14:10.287Z,24.54
2022-08-24T20:16:43.578Z,24.58
2022-08-24T20:19:15.793Z,24.41
2022-08-24T20:21:45.145Z,24.36
2022-08-24T20:24:15.316Z,24.43
2022-08-24T20:26:46.841Z,24.42
2022-08-24T20:29:18.238Z,24.31
2022-08-24T20:31:50.617Z,24.20
2022-08-24T20:34:21.505Z,24.19
2022-08-24T20:36:52.017Z,24.20
2022-08-24T20:39:24.970Z,24.20
2022-08-24T20:41:54.487Z,24.21
2022-08-24T20:44:25.067Z,24.13
2022-08-24T20:46:55.269Z,24.06
2022-08-24T20:49:27.868Z,24.09
2022-08-24T20:52:00.622Z,24.06
2022-08-24T20:54:29.908Z,23.90
2022-08-24T20:56:59.113Z,23.89
2022-08-24T20:59:29.852Z,23.97
2022-08-24T21:02:00.259Z,23.80
2022-08-24T21:04:30.602Z,23.85
2022-08-24T21:06:59.854Z,23.81
2022-08-24T21:09:29.413Z,23.61
2022-08-24T21:11:58.578Z,23.61
2022-08-24T21:14:29.287Z,23.72
2022-08-24T21:17:01.013Z,23.64
2022-08-24T21:19:30.730Z,23.69
2022-08-24T21:22:00.030Z,23.70
2022-08-24T21:24:29.441Z,23.67
2022-08-24T21:26:59.939Z,23.71
2022-08-24T21:29:33.120Z,23.69
2022-08-24T21:32:19.583Z,23.63
2022-08-24T21:34:48.976Z,23.59
2022-08-24T21:37:20.275Z,23.59
2022-08-24T21:39:50.094Z,23.56
2022-08-24T21:42:20.209Z,23.57
2022-08-24T21:44:50.678Z,23.65
2022-08-24T21:47:20.279Z,23.64
2022-08-24T21:49:49.480Z,23.60
2022-08-24T21:52:18.584Z,23.67
2022-08-24T21:54:47.968Z,23.62
2022-08-24T21:57:16.952Z,23.56
2022-08-24T21:59:46.273Z,23.59
2022-08-24T22:02:20.568Z,23.61
2022-08-24T22:04:56.044Z,23.60
2022-08-24T22:07:26.141Z,23.59
2022-08-24T22:09:55.267Z,23.60
2022-08-24T22:12:24.283Z,23.49
2022-08-24T22:14:53.493Z,23.53
2022-08-24T22:17:23.954Z,23.57
2022-08-24T22:19:52.922Z,23.60
2022-08-24T22:22:22.461Z,23.49
2022-08-24T22:24:51.641Z,23.49
2022-08-24T22:27:21.146Z,23.52
2022-08-24T22:29:54.574Z,23.49
2022-08-24T22:32:25.767Z,23.49
2022-08-24T22:34:55.489Z,23.43
2022-08-24T22:37:24.556Z,23.41
2022-08-24T22:39:53.551Z,23.38
2022-08-24T22:42:22.909Z,23.33
2022-08-24T22:44:52.134Z,23.47
2022-08-24T22:47:21.241Z,23.52
2022-08-24T22:49:54.345Z,23.62
2022-08-24T22:52:23.644Z,23.61
2022-08-24T22:54:52.881Z,23.49
2022-08-24T22:57:21.885Z,23.53
2022-08-24T22:59:51.142Z,23.43
2022-08-24T23:02:20.708Z,23.36
2022-08-24T23:04:52.537Z,23.38
2022-08-24T23:07:22.162Z,23.36
2022-08-24T23:09:51.517Z,23.38
2022-08-24T23:12:22.961Z,23.22
2022-08-24T23:14:53.552Z,23.34
2022-08-24T23:17:23.637Z,23.36
2022-08-24T23:20:05.810Z,23.42
2022-08-24T23:22:38.705Z,23.53
2022-08-24T23:25:09.756Z,23.52
2022-08-24T23:27:39.263Z,23.64
2022-08-24T23:30:11.518Z,23.59
2022-08-24T23:32:41.269Z,23.52
2022-08-24T23:35:12.222Z,23.62
2022-08-24T23:37:42.282Z,23.55
2022-08-24T23:40:12.606Z,23.48
2022-08-24T23:42:41.808Z,23.51
2022-08-24T23:45:12.407Z,23.55
2022-08-24T23:47:42.683Z,23.50
2022-08-24T23:50:13.550Z,23.60
2022-08-24T23:52:42.894Z,23.54
2022-08-24T23:55:21.323Z,23.68
2022-08-24T23:57:52.712Z,23.59
